Time;durP1;ratioP1;P1;durP2;ratioP2;P2;SDS_P1;SDS_P2;PMS_P1;PMS_P2;Temp;Humidity;BMP_temperature;BMP_pressure;BME280_temperature;BME280_humidity;BME280_pressure;Samples;Min_cycle;Max_cycle;Signal;HPM_P1;HPM_P2
2022/06/17 00:00:12;;;;;;;2.93;2.60;;;20.60;65.70;;;;;;5016804;28;20453;-64
2022/06/17 00:02:39;;;;;;;3.03;2.73;;;20.60;65.70;;;;;;5016500;28;20535;-65
2022/06/17 00:05:07;;;;;;;3.10;2.90;;;20.60;65.90;;;;;;5016855;28;20489;-64
2022/06/17 00:07:34;;;;;;;2.73;2.50;;;20.50;66.20;;;;;;5016771;28;20453;-64
2022/06/17 00:10:01;;;;;;;2.80;2.60;;;20.50;66.30;;;;;;5016652;28;20464;-64
2022/06/17 00:12:30;;;;;;;2.80;2.30;;;20.50;66.60;;;;;;5016434;28;20501;-64
2022/06/17 00:15:15;;;;;;;3.67;2.47;;;20.40;66.60;;;;;;5016646;28;20448;-65
2022/06/17 00:17:44;;;;;;;2.80;2.60;;;20.40;67.10;;;;;;5016210;28;20441;-65
2022/06/17 00:20:14;;;;;;;3.27;3.07;;;20.40;67.70;;;;;;5016443;28;20513;-64
2022/06/17 00:22:43;;;;;;;3.47;3.00;;;20.30;67.80;;;;;;5017319;28;20802;-64
2022/06/17 00:25:20;;;;;;;2.60;2.40;;;20.30;68.00;;;;;;5015112;28;20995;-65
2022/06/17 00:27:48;;;;;;;2.70;2.50;;;20.30;68.10;;;;;;5016606;28;20440;-65
2022/06/17 00:30:20;;;;;;;6.20;2.77;;;20.30;68.30;;;;;;5016246;28;20535;-65
2022/06/17 00:32:46;;;;;;;2.90;2.70;;;20.20;68.60;;;;;;5016215;28;20479;-65
2022/06/17 00:35:14;;;;;;;3.17;2.97;;;20.20;69.10;;;;;;5016108;28;20460;-64
2022/06/17 00:37:41;;;;;;;2.40;2.30;;;20.20;69.00;;;;;;5016213;28;20526;-64
2022/06/17 00:40:14;;;;;;;3.47;2.97;;;20.10;69.40;;;;;;5015789;28;21007;-64
2022/06/17 00:42:42;;;;;;;10.13;3.10;;;20.10;70.10;;;;;;5016053;28;20488;-64
2022/06/17 00:45:19;;;;;;;2.50;2.40;;;20.00;71.20;;;;;;5015630;28;20476;-65
2022/06/17 00:47:51;;;;;;;3.23;2.70;;;19.90;71.70;;;;;;5015890;28;20445;-64
2022/06/17 00:50:25;;;;;;;6.90;3.13;;;19.80;71.90;;;;;;5015842;28;20441;-65
2022/06/17 00:53:00;;;;;;;2.93;2.20;;;19.70;71.90;;;;;;5016854;28;20473;-64
2022/06/17 00:55:33;;;;;;;2.70;2.50;;;19.70;72.30;;;;;;5016089;28;20432;-64
2022/06/17 00:58:02;;;;;;;2.30;2.20;;;19.60;72.50;;;;;;5015703;28;20437;-65
2022/06/17 01:00:32;;;;;;;4.60;3.03;;;19.60;72.90;;;;;;5015423;28;20857;-64
2022/06/17 01:03:03;;;;;;;5.30;2.77;;;19.50;73.00;;;;;;5015313;28;20520;-64
2022/06/17 01:05:35;;;;;;;2.80;2.67;;;19.50;73.50;;;;;;5015460;28;20515;-65
2022/06/17 01:08:05;;;;;;;2.63;2.43;;;19.40;73.80;;;;;;5015515;28;20464;-64
2022/06/17 01:10:31;;;;;;;3.30;3.03;;;19.30;74.00;;;;;;5015507;28;20437;-64
2022/06/17 01:13:02;;;;;;;3.07;2.87;;;19.30;74.70;;;;;;5015435;28;20472;-64
2022/06/17 01:15:33;;;;;;;2.57;2.40;;;19.30;75.10;;;;;;5015323;28;20487;-65
2022/06/17 01:18:00;;;;;;;5.37;2.80;;;19.20;75.50;;;;;;5015364;28;20978;-64
2022/06/17 01:20:29;;;;;;;2.50;2.33;;;19.10;75.90;;;;;;5014932;28;20831;-64
2022/06/17 01:22:59;;;;;;;3.57;2.80;;;19.10;75.70;;;;;;5015300;28;20487;-64
2022/06/17 01:25:29;;;;;;;3.00;2.70;;;19.00;76.10;;;;;;5015146;28;20469;-66
2022/06/17 01:27:58;;;;;;;2.87;2.73;;;19.00;77.60;;;;;;5015047;28;20552;-65
2022/06/17 01:30:27;;;;;;;3.57;2.90;;;18.90;77.50;;;;;;5015035;28;20468;-64
2022/06/17 01:32:58;;;;;;;2.83;2.43;;;18.90;77.70;;;;;;5014837;28;20484;-64
2022/06/17 01:35:28;;;;;;;2.67;2.40;;;18.80;78.00;;;;;;5014838;28;20491;-65
2022/06/17 01:37:57;;;;;;;8.13;2.90;;;18.80;78.10;;;;;;5014857;28;20580;-65
2022/06/17 01:40:27;;;;;;;3.00;2.77;;;18.80;78.60;;;;;;5014845;28;20459;-65
2022/06/17 01:42:56;;;;;;;2.80;2.60;;;18.70;78.80;;;;;;5014926;28;20476;-65
2022/06/17 01:45:22;;;;;;;2.80;2.60;;;18.70;79.20;;;;;;5014832;28;20526;-65
2022/06/17 01:47:49;;;;;;;3.80;2.57;;;18.60;79.60;;;;;;5015047;28;20459;-65
2022/06/17 01:50:21;;;;;;;5.07;3.00;;;18.60;80.40;;;;;;5015042;28;20459;-65
2022/06/17 01:52:53;;;;;;;2.67;2.50;;;18.60;80.80;;;;;;5014720;28;20473;-65
2022/06/17 01:55:27;;;;;;;2.80;2.60;;;18.60;81.10;;;;;;5014861;28;20437;-65
2022/06/17 01:58:07;;;;;;;2.57;2.47;;;18.50;81.30;;;;;;5014682;28;20938;-65
2022/06/17 02:00:35;;;;;;;2.67;2.47;;;18.50;81.80;;;;;;5014828;28;20819;-65
2022/06/17 02:03:10;;;;;;;2.50;2.40;;;18.50;82.30;;;;;;5014809;28;20530;-65
2022/06/17 02:05:39;;;;;;;2.77;2.60;;;18.40;82.30;;;;;;5014657;28;20465;-65
2022/06/17 02:08:06;;;;;;;2.63;2.50;;;18.40;82.60;;;;;;5013902;28;20794;-66
2022/06/17 02:10:38;;;;;;;3.60;2.20;;;18.40;82.50;;;;;;5014411;28;20456;-65
2022/06/17 02:13:07;;;;;;;2.60;2.40;;;18.40;82.60;;;;;;5014356;28;20539;-66
2022/06/17 02:15:34;;;;;;;2.70;2.60;;;18.30;82.60;;;;;;5014017;28;20456;-65
2022/06/17 02:18:04;;;;;;;4.90;3.37;;;18.30;82.90;;;;;;5013978;28;20802;-65
2022/06/17 02:20:31;;;;;;;2.30;2.20;;;18.20;83.60;;;;;;5014261;28;20480;-65
2022/06/17 02:23:00;;;;;;;2.63;2.50;;;18.20;84.00;;;;;;5014790;28;20483;-65
2022/06/17 02:25:30;;;;;;;3.27;2.97;;;18.10;84.30;;;;;;5014185;28;20453;-65
2022/06/17 02:28:00;;;;;;;2.60;2.40;;;18.10;85.20;;;;;;5013885;28;20507;-65
2022/06/17 02:30:28;;;;;;;2.43;2.30;;;18.00;86.00;;;;;;5014106;28;20457;-65
2022/06/17 02:32:57;;;;;;;2.43;2.00;;;18.00;86.80;;;;;;5014185;28;20572;-65
2022/06/17 02:35:30;;;;;;;3.13;2.20;;;18.00;87.20;;;;;;5013843;28;20967;-65
2022/06/17 02:37:57;;;;;;;2.80;2.70;;;18.00;87.30;;;;;;5013798;28;20444;-65
2022/06/17 02:40:30;;;;;;;2.43;2.33;;;18.00;88.00;;;;;;5014169;28;20464;-65
2022/06/17 02:43:00;;;;;;;2.40;2.30;;;18.00;88.20;;;;;;5013920;28;20477;-65
2022/06/17 02:45:29;;;;;;;2.90;2.70;;;18.00;88.60;;;;;;5014642;28;20452;-64
2022/06/17 02:47:56;;;;;;;2.73;2.50;;;18.00;88.30;;;;;;5015389;28;20873;-63
2022/06/17 02:50:25;;;;;;;2.57;2.40;;;17.90;88.80;;;;;;5017422;28;20840;-63
2022/06/17 02:52:53;;;;;;;2.63;2.43;;;17.90;89.30;;;;;;5017841;28;20472;-63
2022/06/17 02:55:25;;;;;;;2.87;2.70;;;17.90;90.00;;;;;;5017562;28;20494;-63
2022/06/17 02:57:54;;;;;;;3.27;3.07;;;17.80;90.20;;;;;;5017839;28;20448;-63
2022/06/17 03:00:22;;;;;;;3.90;2.60;;;17.80;90.80;;;;;;5017782;28;20456;-62
2022/06/17 03:02:52;;;;;;;2.90;2.70;;;17.80;91.20;;;;;;5017552;28;20488;-62
2022/06/17 03:05:22;;;;;;;2.70;2.50;;;17.80;91.30;;;;;;5017766;28;20459;-62
2022/06/17 03:07:50;;;;;;;2.77;2.57;;;17.80;91.30;;;;;;5017573;28;20525;-62
2022/06/17 03:10:18;;;;;;;2.70;2.50;;;17.80;91.50;;;;;;5017713;28;20458;-62
2022/06/17 03:12:49;;;;;;;2.77;2.57;;;17.80;91.90;;;;;;5017295;28;20468;-62
2022/06/17 03:15:20;;;;;;;3.40;3.10;;;17.80;92.10;;;;;;5017260;28;20908;-62
2022/06/17 03:17:48;;;;;;;2.53;2.33;;;17.80;92.30;;;;;;5017994;28;20433;-62
2022/06/17 03:20:19;;;;;;;2.60;2.40;;;17.80;92.40;;;;;;5017189;28;20904;-62
2022/06/17 03:22:50;;;;;;;2.97;2.77;;;17.80;92.60;;;;;;5017366;28;20468;-62
2022/06/17 03:25:24;;;;;;;3.37;3.07;;;17.70;92.80;;;;;;5017557;28;20433;-66
2022/06/17 03:27:53;;;;;;;3.23;2.93;;;17.70;92.60;;;;;;5016959;28;20829;-65
2022/06/17 03:30:25;;;;;;;3.17;2.27;;;17.70;92.80;;;;;;5017133;28;20457;-64
2022/06/17 03:33:00;;;;;;;3.10;2.90;;;17.70;92.90;;;;;;5016904;28;20472;-64
2022/06/17 03:35:31;;;;;;;3.20;2.93;;;17.70;93.30;;;;;;5017183;28;20440;-65
2022/06/17 03:38:00;;;;;;;2.60;2.50;;;17.70;93.30;;;;;;5017201;28;20467;-65
2022/06/17 03:40:32;;;;;;;2.77;2.57;;;17.70;93.50;;;;;;5017158;28;20518;-65
2022/06/17 03:43:05;;;;;;;2.57;2.37;;;17.70;93.60;;;;;;5017345;28;20863;-65
2022/06/17 03:45:43;;;;;;;3.13;2.93;;;17.70;93.70;;;;;;5016789;28;20510;-65
2022/06/17 03:48:17;;;;;;;4.70;2.43;;;17.70;93.80;;;;;;5016835;28;20433;-65
2022/06/17 03:50:47;;;;;;;2.70;2.50;;;17.70;93.90;;;;;;5016887;28;20437;-65
2022/06/17 03:53:22;;;;;;;8.33;2.60;;;17.70;94.10;;;;;;5016566;28;20476;-65
2022/06/17 03:55:50;;;;;;;2.90;2.70;;;17.80;94.20;;;;;;5016921;28;20440;-65
2022/06/17 03:58:20;;;;;;;4.00;2.60;;;17.80;94.20;;;;;;5016640;28;20457;-65
2022/06/17 04:00:50;;;;;;;3.90;2.70;;;17.90;94.10;;;;;;5016520;28;20597;-67
2022/06/17 04:03:21;;;;;;;2.27;2.17;;;17.90;93.80;;;;;;5016236;28;20487;-66
2022/06/17 04:05:54;;;;;;;2.80;2.50;;;17.90;94.00;;;;;;5016446;28;20441;-65
2022/06/17 04:08:21;;;;;;;2.40;2.20;;;17.90;94.10;;;;;;5016458;28;20909;-65
2022/06/17 04:10:47;;;;;;;2.60;2.40;;;17.90;93.90;;;;;;5016473;28;20464;-64
2022/06/17 04:13:17;;;;;;;2.40;2.30;;;18.00;94.30;;;;;;5016597;28;20473;-65
2022/06/17 04:15:51;;;;;;;4.03;2.50;;;18.10;94.30;;;;;;5016471;28;20452;-65
2022/06/17 04:18:19;;;;;;;2.67;2.43;;;18.10;94.30;;;;;;5016522;28;20441;-65
2022/06/17 04:20:50;;;;;;;3.20;2.90;;;18.10;94.00;;;;;;5016050;28;21002;-65
2022/06/17 04:23:19;;;;;;;2.47;2.33;;;18.10;93.90;;;;;;5016361;28;20491;-65
2022/06/17 04:25:51;;;;;;;2.63;2.40;;;18.20;93.80;;;;;;5016186;28;20460;-65
2022/06/17 04:28:22;;;;;;;3.07;2.97;;;18.20;93.60;;;;;;5016405;28;20430;-65
2022/06/17 04:30:53;;;;;;;2.70;2.30;;;18.30;93.90;;;;;;5016027;28;20448;-65
2022/06/17 04:33:26;;;;;;;2.77;2.57;;;18.30;93.90;;;;;;5015988;28;20483;-63
2022/06/17 04:35:58;;;;;;;2.77;2.57;;;18.20;93.70;;;;;;5015804;28;20947;-63
2022/06/17 04:38:26;;;;;;;2.27;2.07;;;18.30;94.00;;;;;;5015762;28;20465;-63
2022/06/17 04:40:57;;;;;;;2.73;2.60;;;18.30;94.50;;;;;;5015716;28;20465;-62
2022/06/17 04:43:29;;;;;;;2.43;2.33;;;18.30;94.30;;;;;;5016030;28;20511;-63
2022/06/17 04:46:00;;;;;;;2.60;2.40;;;18.40;94.90;;;;;;5016245;28;20447;-62
2022/06/17 04:48:28;;;;;;;4.27;2.40;;;18.50;94.90;;;;;;5016170;28;20983;-62
2022/06/17 04:50:55;;;;;;;2.43;2.27;;;18.50;95.20;;;;;;5016362;28;20457;-62
2022/06/17 04:53:22;;;;;;;3.50;2.50;;;18.60;94.20;;;;;;5015830;28;20811;-63
2022/06/17 04:55:48;;;;;;;2.77;2.57;;;18.60;94.70;;;;;;5015728;28;20461;-63
2022/06/17 04:58:18;;;;;;;2.83;2.63;;;18.70;95.20;;;;;;5015357;28;20932;-62
2022/06/17 05:00:49;;;;;;;3.33;2.90;;;18.80;95.20;;;;;;5015393;28;20940;-62
2022/06/17 05:03:16;;;;;;;3.10;2.40;;;18.90;95.50;;;;;;5015499;28;20487;-62
2022/06/17 05:05:46;;;;;;;3.20;3.00;;;18.90;95.70;;;;;;5015624;28;20884;-63
2022/06/17 05:08:18;;;;;;;3.90;3.30;;;18.90;96.30;;;;;;5015582;28;20484;-63
2022/06/17 05:10:49;;;;;;;3.23;2.90;;;18.90;96.10;;;;;;5014996;28;20437;-63
2022/06/17 05:13:21;;;;;;;3.70;3.40;;;19.00;96.10;;;;;;5015306;28;20472;-63
2022/06/17 05:15:48;;;;;;;3.87;3.50;;;19.00;96.30;;;;;;5016103;28;20441;-63
2022/06/17 05:18:15;;;;;;;4.10;3.70;;;19.00;96.70;;;;;;5015450;28;20449;-64
2022/06/17 05:20:42;;;;;;;3.83;3.50;;;19.00;96.60;;;;;;5015120;28;20452;-62
2022/06/17 05:23:13;;;;;;;4.53;3.40;;;19.00;96.90;;;;;;5014855;28;20559;-63
2022/06/17 05:25:41;;;;;;;5.47;2.67;;;19.10;97.20;;;;;;5015114;28;20451;-63
2022/06/17 05:28:11;;;;;;;2.33;2.23;;;19.20;96.80;;;;;;5015075;28;20511;-63
2022/06/17 05:30:39;;;;;;;3.37;2.00;;;19.30;95.20;;;;;;5014940;28;20457;-63
2022/06/17 05:33:07;;;;;;;4.37;2.30;;;19.50;93.30;;;;;;5015033;28;20473;-63
2022/06/17 05:35:33;;;;;;;3.10;2.80;;;19.60;92.70;;;;;;5014824;28;20821;-63
2022/06/17 05:38:00;;;;;;;3.03;2.83;;;19.60;92.90;;;;;;5014807;28;20449;-64
2022/06/17 05:40:28;;;;;;;6.90;2.30;;;19.70;92.30;;;;;;5014827;28;20456;-65
2022/06/17 05:42:55;;;;;;;2.70;2.50;;;19.90;92.50;;;;;;5014688;28;20479;-63
2022/06/17 05:45:24;;;;;;;3.53;2.90;;;20.00;91.20;;;;;;5014652;28;20568;-63
2022/06/17 05:47:52;;;;;;;3.67;2.50;;;20.10;91.70;;;;;;5014683;28;20476;-63
2022/06/17 05:50:20;;;;;;;2.73;2.53;;;20.20;91.20;;;;;;5014845;28;20456;-63
2022/06/17 05:52:49;;;;;;;4.20;2.77;;;20.30;91.10;;;;;;5014665;28;20487;-62
2022/06/17 05:55:16;;;;;;;2.90;2.50;;;20.30;90.50;;;;;;5014528;28;21002;-62
2022/06/17 05:57:45;;;;;;;2.93;2.73;;;20.30;91.10;;;;;;5014670;28;20456;-62
2022/06/17 06:00:13;;;;;;;7.50;2.80;;;20.20;90.80;;;;;;5014547;28;20453;-62
2022/06/17 06:02:40;;;;;;;3.67;3.00;;;20.20;91.20;;;;;;5014785;28;20481;-62
2022/06/17 06:05:08;;;;;;;3.33;2.50;;;20.30;90.80;;;;;;5015200;28;20483;-62
2022/06/17 06:07:34;;;;;;;3.97;3.63;;;20.30;90.60;;;;;;5014835;28;20479;-63
2022/06/17 06:10:01;;;;;;;3.37;2.80;;;20.40;91.00;;;;;;5014806;28;20453;-62
2022/06/17 06:12:53;;;;;;;3.53;3.23;;;20.60;91.00;;;;;;5014439;28;20821;-63
2022/06/17 06:15:16;;;;;;;7.20;3.10;;;20.80;90.60;;;;;;5014465;28;20814;-62
2022/06/17 06:17:45;;;;;;;4.90;3.07;;;21.00;90.10;;;;;;5014494;28;20960;-63
2022/06/17 06:20:13;;;;;;;3.60;3.27;;;21.10;90.50;;;;;;5014478;28;20452;-63
2022/06/17 06:22:40;;;;;;;5.00;2.73;;;21.20;90.40;;;;;;5013197;28;20479;-63
2022/06/17 06:25:10;;;;;;;6.00;3.13;;;21.40;90.50;;;;;;5014436;28;20463;-63
2022/06/17 06:27:36;;;;;;;3.27;3.00;;;21.50;90.10;;;;;;5013843;28;20479;-63
2022/06/17 06:30:04;;;;;;;3.37;3.10;;;21.80;89.20;;;;;;5014463;28;20473;-63
2022/06/17 06:32:32;;;;;;;2.53;2.43;;;22.00;87.70;;;;;;5014310;28;20484;-64
2022/06/17 06:34:59;;;;;;;3.53;2.60;;;22.10;87.20;;;;;;5014304;28;20456;-64
2022/06/17 06:37:26;;;;;;;3.60;2.97;;;22.40;86.60;;;;;;5014396;28;20445;-64
2022/06/17 06:39:52;;;;;;;3.03;2.83;;;22.60;83.50;;;;;;5014261;28;20466;-64
2022/06/17 06:42:19;;;;;;;3.23;2.93;;;22.80;81.90;;;;;;5014440;28;20480;-64
2022/06/17 06:44:46;;;;;;;3.30;3.00;;;23.00;81.70;;;;;;5013904;28;20985;-64
2022/06/17 06:47:13;;;;;;;3.30;3.00;;;23.30;79.90;;;;;;5014106;28;20476;-64
2022/06/17 06:49:41;;;;;;;2.50;2.30;;;23.40;79.60;;;;;;5014145;28;20860;-64
2022/06/17 06:52:08;;;;;;;2.53;2.37;;;23.60;79.20;;;;;;5014199;28;20472;-64
2022/06/17 06:54:34;;;;;;;2.53;2.33;;;23.60;77.20;;;;;;5014124;28;20457;-63
2022/06/17 06:57:01;;;;;;;4.87;2.80;;;23.60;78.10;;;;;;5014017;28;20456;-64
2022/06/17 06:59:28;;;;;;;3.63;3.33;;;23.60;78.80;;;;;;5013910;28;20459;-63
2022/06/17 07:01:55;;;;;;;2.83;2.60;;;23.50;77.60;;;;;;5013867;28;20464;-64
2022/06/17 07:04:22;;;;;;;2.87;2.67;;;23.80;79.80;;;;;;5014025;28;20437;-64
2022/06/17 07:06:50;;;;;;;2.80;2.60;;;24.30;79.90;;;;;;5014150;28;20515;-63
2022/06/17 07:09:16;;;;;;;3.20;2.87;;;24.50;77.70;;;;;;5013694;28;20461;-63
2022/06/17 07:11:43;;;;;;;3.30;3.00;;;25.00;77.60;;;;;;5013797;28;20456;-64
2022/06/17 07:14:10;;;;;;;3.33;2.70;;;25.50;77.80;;;;;;5013861;28;20453;-63
2022/06/17 07:16:37;;;;;;;3.57;3.10;;;26.10;74.50;;;;;;5013931;28;20464;-64
2022/06/17 07:19:07;;;;;;;7.53;2.97;;;26.90;74.30;;;;;;5014007;28;20507;-64
2022/06/17 07:21:34;;;;;;;4.40;2.80;;;27.70;69.50;;;;;;5013864;28;20459;-65
2022/06/17 07:24:02;;;;;;;5.37;2.60;;;27.70;72.70;;;;;;5013690;28;20827;-65
2022/06/17 07:26:29;;;;;;;4.50;2.37;;;28.10;71.40;;;;;;5012959;28;20465;-65
2022/06/17 07:28:56;;;;;;;4.30;3.20;;;28.80;67.20;;;;;;5013943;28;20480;-65
2022/06/17 07:31:23;;;;;;;7.60;2.80;;;29.20;63.10;;;;;;5014144;28;20453;-65
2022/06/17 07:33:51;;;;;;;4.27;2.83;;;29.60;62.20;;;;;;5014748;28;20838;-65
2022/06/17 07:41:49;;;;;;;3.93;2.60;;;29.60;61.30;;;;;;5016906;28;20783;-66
2022/06/17 07:44:17;;;;;;;5.77;2.90;;;29.50;59.70;;;;;;5017500;28;20437;-65
2022/06/17 07:46:44;;;;;;;2.70;2.50;;;29.90;59.50;;;;;;5017710;28;20448;-65
2022/06/17 07:49:12;;;;;;;5.63;2.70;;;30.00;60.00;;;;;;5017570;28;20472;-65
2022/06/17 07:51:38;;;;;;;2.80;2.60;;;29.90;58.70;;;;;;5017193;28;20986;-66
2022/06/17 07:54:05;;;;;;;3.27;3.00;;;30.40;58.70;;;;;;5017400;28;20827;-68
2022/06/17 07:56:33;;;;;;;3.13;2.90;;;30.70;57.20;;;;;;5017437;28;20791;-67
2022/06/17 07:59:01;;;;;;;3.37;2.90;;;30.90;56.60;;;;;;5016730;28;20467;-66
2022/06/17 08:01:28;;;;;;;2.90;2.70;;;30.80;57.20;;;;;;5017378;28;20671;-67
2022/06/17 08:03:54;;;;;;;6.23;3.40;;;31.20;57.40;;;;;;5017027;28;20485;-66
2022/06/17 08:06:21;;;;;;;4.37;2.60;;;31.20;56.90;;;;;;5016834;28;20452;-66
2022/06/17 08:08:49;;;;;;;5.43;2.90;;;30.90;56.00;;;;;;5016887;28;20469;-65
2022/06/17 08:11:16;;;;;;;5.43;2.80;;;30.40;57.00;;;;;;5017283;28;20495;-66
2022/06/17 08:13:43;;;;;;;3.30;3.10;;;30.20;58.40;;;;;;5016945;28;21007;-66
2022/06/17 08:16:14;;;;;;;3.70;3.10;;;30.10;56.80;;;;;;5016972;28;20453;-66
2022/06/17 08:18:42;;;;;;;6.07;2.80;;;30.00;57.20;;;;;;5017463;28;20444;-66
2022/06/17 08:21:10;;;;;;;2.40;2.30;;;30.40;55.70;;;;;;5017138;28;20452;-66
2022/06/17 08:23:37;;;;;;;3.93;2.87;;;31.00;55.30;;;;;;5016991;28;20473;-67
2022/06/17 08:26:04;;;;;;;3.53;2.90;;;31.40;54.60;;;;;;5016989;28;20453;-66
2022/06/17 08:28:31;;;;;;;2.87;2.67;;;31.70;52.70;;;;;;5016576;28;20480;-66
2022/06/17 08:30:58;;;;;;;3.17;2.90;;;32.00;55.50;;;;;;5016705;28;20452;-66
2022/06/17 08:33:29;;;;;;;5.73;2.90;;;32.20;53.90;;;;;;5016770;28;20484;-65
2022/06/17 08:35:59;;;;;;;3.20;2.53;;;32.50;51.30;;;;;;5016660;28;20437;-65
2022/06/17 08:38:30;;;;;;;3.27;3.07;;;32.80;51.70;;;;;;5016993;28;20532;-65
2022/06/17 08:40:59;;;;;;;8.30;3.50;;;33.30;50.50;;;;;;5016753;28;20445;-66
2022/06/17 08:44:19;;;;;;;3.17;2.43;;;33.50;51.20;;;;;;5016598;28;20479;-66
2022/06/17 08:47:00;;;;;;;3.17;2.97;;;33.30;50.90;;;;;;5015628;28;20437;-65
2022/06/17 08:49:55;;;;;;;3.50;2.63;;;33.50;48.70;;;;;;5015919;28;20470;-66
2022/06/17 08:52:38;;;;;;;2.70;2.50;;;33.30;51.10;;;;;;5016557;28;20471;-65
2022/06/17 08:55:12;;;;;;;5.47;2.40;;;33.70;47.60;;;;;;5016635;28;20441;-67
2022/06/17 08:57:47;;;;;;;3.23;2.73;;;33.50;49.20;;;;;;5016973;28;20444;-68
2022/06/17 09:00:16;;;;;;;2.60;2.40;;;33.70;49.40;;;;;;5016647;28;20463;-69
2022/06/17 09:03:24;;;;;;;3.37;2.47;;;33.90;49.30;;;;;;5016385;28;20502;-67
2022/06/17 09:05:59;;;;;;;2.23;2.13;;;33.80;48.20;;;;;;4936480;29;20463;-67
2022/06/17 09:08:56;;;;;;;2.30;2.20;;;33.80;47.60;;;;;;4936265;29;20483;-68
2022/06/17 09:11:30;;;;;;;2.43;2.20;;;34.30;45.90;;;;;;4992431;28;20451;-66
2022/06/17 09:14:11;;;;;;;4.83;2.63;;;33.90;47.50;;;;;;5015698;28;20464;-67
2022/06/17 09:16:50;;;;;;;2.50;2.40;;;33.90;48.30;;;;;;5016071;28;20437;-67
2022/06/17 09:19:20;;;;;;;3.47;2.20;;;34.30;47.50;;;;;;5015448;28;20904;-67
2022/06/17 09:21:52;;;;;;;2.50;2.30;;;34.30;48.10;;;;;;5016083;28;20444;-67
2022/06/17 09:24:23;;;;;;;1.97;1.87;;;34.40;45.60;;;;;;5016192;28;20434;-68
2022/06/17 09:26:55;;;;;;;1.70;1.60;;;34.90;46.50;;;;;;5015800;28;20432;-67
2022/06/17 09:29:27;;;;;;;2.30;2.10;;;35.00;43.60;;;;;;5015525;28;20487;-67
2022/06/17 09:32:07;;;;;;;3.00;1.83;;;35.40;44.50;;;;;;5015291;28;20846;-67
2022/06/17 09:34:41;;;;;;;1.87;1.77;;;35.40;40.80;;;;;;5016209;28;20447;-67
2022/06/17 09:37:16;;;;;;;4.50;2.70;;;35.60;42.60;;;;;;5015332;28;20447;-67
2022/06/17 09:39:48;;;;;;;2.00;1.90;;;36.10;43.50;;;;;;5015429;28;20479;-67
2022/06/17 09:42:20;;;;;;;2.23;1.87;;;36.50;41.20;;;;;;5015282;28;20506;-66
2022/06/17 09:44:53;;;;;;;2.43;1.87;;;36.30;41.90;;;;;;5015275;28;20441;-66
2022/06/17 09:47:25;;;;;;;3.87;2.13;;;36.00;41.00;;;;;;5015279;28;20437;-67
2022/06/17 09:49:54;;;;;;;4.77;1.77;;;35.80;41.10;;;;;;5015591;28;20460;-63
2022/06/17 09:52:27;;;;;;;2.60;2.00;;;35.20;41.50;;;;;;5015352;28;20472;-64
2022/06/17 09:54:58;;;;;;;2.10;1.53;;;35.30;41.50;;;;;;5014921;28;20945;-64
2022/06/17 09:57:30;;;;;;;2.33;2.07;;;35.60;41.70;;;;;;5015309;28;20433;-65
2022/06/17 10:00:02;;;;;;;2.10;2.00;;;35.60;42.60;;;;;;5014986;28;20436;-67
2022/06/17 10:02:33;;;;;;;3.40;1.73;;;36.20;43.80;;;;;;5014851;28;20489;-67
2022/06/17 10:05:02;;;;;;;2.37;2.17;;;36.90;42.10;;;;;;5014742;28;20528;-66
2022/06/17 10:07:41;;;;;;;2.90;1.90;;;37.00;42.30;;;;;;5014983;28;20452;-66
2022/06/17 10:10:23;;;;;;;2.20;2.00;;;37.40;41.80;;;;;;5014766;28;20452;-69
2022/06/17 10:13:04;;;;;;;2.63;2.30;;;37.50;41.50;;;;;;5014797;28;20476;-66
2022/06/17 10:18:31;;;;;;;2.33;1.97;;;37.50;42.30;;;;;;5014451;28;20440;-67
2022/06/17 10:18:42;;;;;;;1.63;1.53;;;37.30;40.50;;;;;;5014324;28;20444;-67
2022/06/17 10:21:34;;;;;;;2.00;1.90;;;37.10;41.80;;;;;;5014727;28;20447;-68
2022/06/17 10:24:10;;;;;;;3.33;1.80;;;36.60;40.20;;;;;;5014464;28;20483;-68
2022/06/17 10:26:54;;;;;;;2.70;2.30;;;36.60;41.20;;;;;;5014455;28;20782;-67
2022/06/17 10:29:42;;;;;;;4.73;2.10;;;36.40;39.00;;;;;;5014724;28;20471;-67
2022/06/17 10:32:10;;;;;;;1.80;1.70;;;36.50;39.80;;;;;;5014733;28;20476;-68
2022/06/17 10:34:44;;;;;;;1.87;1.57;;;36.50;38.00;;;;;;5014244;28;20452;-67
2022/06/17 10:37:12;;;;;;;1.70;1.60;;;36.30;37.70;;;;;;5014702;28;20533;-68
2022/06/17 10:39:43;;;;;;;3.27;1.70;;;36.10;38.30;;;;;;5014267;28;20476;-65
2022/06/17 10:42:16;;;;;;;2.40;1.80;;;36.00;38.40;;;;;;5013995;28;20468;-67
2022/06/17 10:44:46;;;;;;;2.30;1.93;;;36.10;39.00;;;;;;5014305;28;20491;-66
2022/06/17 10:47:26;;;;;;;3.43;1.90;;;35.80;39.30;;;;;;5014419;28;20502;-66
2022/06/17 10:49:57;;;;;;;3.43;1.30;;;36.10;38.70;;;;;;5014254;28;20460;-66
2022/06/17 10:52:30;;;;;;;1.53;1.47;;;36.30;38.70;;;;;;5014017;28;20488;-67
2022/06/17 10:55:00;;;;;;;1.83;1.73;;;36.20;37.60;;;;;;5013631;28;20443;-67
2022/06/17 10:57:28;;;;;;;1.60;1.60;;;36.10;39.00;;;;;;5014093;28;20464;-66
2022/06/17 10:59:56;;;;;;;2.20;1.43;;;36.20;38.90;;;;;;5013762;28;20452;-66
2022/06/17 11:02:29;;;;;;;1.53;1.43;;;36.50;37.30;;;;;;5013710;28;20484;-66
2022/06/17 11:04:58;;;;;;;1.80;1.30;;;36.50;36.10;;;;;;5014058;28;20468;-66
2022/06/17 11:07:30;;;;;;;1.70;1.60;;;36.50;37.30;;;;;;5013594;28;20962;-66
2022/06/17 11:10:02;;;;;;;1.80;1.70;;;36.30;36.70;;;;;;5016599;28;20461;-66
2022/06/17 11:12:35;;;;;;;1.60;1.30;;;36.20;37.70;;;;;;5017845;28;20480;-67
2022/06/17 11:15:05;;;;;;;1.17;1.17;;;35.90;36.40;;;;;;5017772;28;20495;-67
2022/06/17 11:17:39;;;;;;;3.93;1.80;;;35.80;37.70;;;;;;5018149;28;20456;-67
2022/06/17 11:20:18;;;;;;;2.57;1.47;;;35.70;40.20;;;;;;5017708;28;20451;-67
2022/06/17 11:22:53;;;;;;;2.10;1.80;;;35.60;37.80;;;;;;5017658;28;20475;-67
2022/06/17 11:25:26;;;;;;;2.43;1.70;;;35.10;38.90;;;;;;5017208;28;20444;-67
2022/06/17 11:27:56;;;;;;;1.80;1.70;;;34.40;37.90;;;;;;5017479;28;20452;-67
2022/06/17 11:30:27;;;;;;;2.23;1.47;;;34.00;39.30;;;;;;5017459;28;20888;-67
2022/06/17 11:32:56;;;;;;;1.50;1.40;;;33.30;42.10;;;;;;5017409;28;20575;-67
2022/06/17 11:35:28;;;;;;;1.33;1.33;;;33.20;40.90;;;;;;5017235;28;20479;-67
2022/06/17 11:37:57;;;;;;;1.70;1.60;;;32.60;43.30;;;;;;5017616;28;20441;-67
2022/06/17 11:40:27;;;;;;;3.10;1.70;;;32.50;43.20;;;;;;5017363;28;20506;-67
2022/06/17 11:42:57;;;;;;;2.30;1.40;;;32.30;41.60;;;;;;5016772;28;20987;-67
2022/06/17 11:45:31;;;;;;;2.03;1.53;;;32.10;41.80;;;;;;5017230;28;20464;-67
2022/06/17 11:48:02;;;;;;;2.33;2.03;;;31.90;41.40;;;;;;5017162;28;20432;-67
2022/06/17 11:50:40;;;;;;;2.13;2.03;;;31.80;44.60;;;;;;5016937;28;20476;-67
2022/06/17 11:53:12;;;;;;;2.17;1.77;;;31.90;44.30;;;;;;5017919;28;20979;-67
2022/06/17 11:55:45;;;;;;;1.70;1.70;;;31.90;43.30;;;;;;5017324;28;20901;-67
2022/06/17 11:58:13;;;;;;;1.60;1.50;;;31.70;44.10;;;;;;5017137;28;20461;-67
2022/06/17 12:00:45;;;;;;;1.87;1.80;;;31.80;45.10;;;;;;5017566;28;20455;-67
2022/06/17 12:03:14;;;;;;;1.87;1.77;;;31.70;44.80;;;;;;5016893;28;20484;-66
2022/06/17 12:05:42;;;;;;;1.77;1.67;;;31.50;44.90;;;;;;5017056;28;20452;-67
2022/06/17 12:08:16;;;;;;;1.80;1.70;;;31.50;43.90;;;;;;5017171;28;20457;-67
2022/06/17 12:10:49;;;;;;;2.00;1.90;;;31.60;44.80;;;;;;5017145;28;20515;-67
2022/06/17 12:13:24;;;;;;;3.43;1.43;;;31.60;43.80;;;;;;5016904;28;20983;-67
2022/06/17 12:15:54;;;;;;;1.90;1.60;;;31.70;43.80;;;;;;5016908;28;20498;-67
2022/06/17 12:18:25;;;;;;;1.60;1.50;;;31.30;42.40;;;;;;5018226;28;20476;-67
2022/06/17 12:21:03;;;;;;;2.47;1.70;;;31.40;42.60;;;;;;5015688;28;20441;-67
2022/06/17 12:23:37;;;;;;;1.57;1.47;;;31.50;43.90;;;;;;5016632;28;20477;-67
2022/06/17 12:26:13;;;;;;;1.73;1.63;;;31.30;42.60;;;;;;5016711;28;20441;-67
2022/06/17 12:28:45;;;;;;;1.77;1.50;;;31.50;45.30;;;;;;5016624;28;20496;-67
2022/06/17 12:31:25;;;;;;;1.60;1.50;;;31.50;43.40;;;;;;5017697;28;20762;-67
2022/06/17 12:34:02;;;;;;;1.60;1.60;;;31.50;44.40;;;;;;5016329;28;20473;-66
2022/06/17 12:36:33;;;;;;;1.50;1.40;;;31.70;42.60;;;;;;5016476;28;20445;-67
2022/06/17 12:39:06;;;;;;;3.13;1.30;;;31.90;42.70;;;;;;5016325;28;20437;-67
2022/06/17 12:41:40;;;;;;;1.67;1.57;;;31.70;41.50;;;;;;5016413;28;20437;-68
2022/06/17 12:44:20;;;;;;;1.40;1.40;;;31.70;42.90;;;;;;5016280;28;20475;-67
2022/06/17 12:46:57;;;;;;;1.80;1.70;;;31.50;43.60;;;;;;5016439;28;20441;-67
2022/06/17 12:55:28;;;;;;;2.10;1.43;;;31.60;42.10;;;;;;5016098;28;20503;-67
2022/06/17 12:58:03;;;;;;;3.17;1.53;;;31.70;43.40;;;;;;5015710;28;20459;-68
2022/06/17 13:00:37;;;;;;;3.67;1.70;;;31.90;44.90;;;;;;5015796;28;20455;-68
2022/06/17 13:03:28;;;;;;;1.60;1.60;;;32.00;45.70;;;;;;5015427;28;20978;-68
2022/06/17 13:05:57;;;;;;;1.87;1.60;;;32.20;42.50;;;;;;5015572;28;20916;-68
2022/06/17 13:08:33;;;;;;;1.33;1.30;;;32.20;42.20;;;;;;5016039;28;20467;-68
2022/06/17 13:11:06;;;;;;;1.90;1.33;;;32.40;43.10;;;;;;5015744;28;20433;-68
2022/06/17 13:13:54;;;;;;;1.17;1.10;;;32.30;41.90;;;;;;5015244;28;20476;-68
2022/06/17 13:16:26;;;;;;;1.10;1.10;;;32.40;40.00;;;;;;5015494;28;20491;-68
2022/06/17 13:18:59;;;;;;;1.30;1.30;;;32.30;40.20;;;;;;5015572;28;20433;-68